Time;durP1;ratioP1;P1;durP2;ratioP2;P2;SDS_P1;SDS_P2;PMS_P1;PMS_P2;Temp;Humidity;BMP_temperature;BMP_pressure;BME280_temperature;BME280_humidity;BME280_pressure;Samples;Min_cycle;Max_cycle;Signal;HPM_P1;HPM_P2
2022/12/14 00:02:00;;;;;;;;;;;14.80;46.50;;;;;;5040520;28;20188;-86
2022/12/14 00:04:26;;;;;;;;;;;14.80;46.40;;;;;;5039770;28;19970;-86
2022/12/14 00:06:51;;;;;;;;;;;14.70;46.40;;;;;;5056593;28;19909;-86
2022/12/14 00:09:17;;;;;;;;;;;14.80;46.40;;;;;;5038581;28;19908;-85
2022/12/14 00:11:42;;;;;;;;;;;14.70;46.40;;;;;;5038853;28;19909;-86
2022/12/14 00:14:08;;;;;;;;;;;14.70;46.40;;;;;;5038107;28;20000;-86
2022/12/14 00:16:34;;;;;;;;;;;14.70;46.40;;;;;;5037404;28;19909;-85
2022/12/14 00:19:00;;;;;;;;;;;14.70;46.40;;;;;;5055582;28;20286;-85
2022/12/14 00:21:26;;;;;;;;;;;14.70;46.40;;;;;;5038572;28;20257;-86
2022/12/14 00:23:52;;;;;;;;;;;14.70;46.40;;;;;;5039725;28;19955;-86
2022/12/14 00:26:19;;;;;;;;;;;14.70;46.40;;;;;;5057187;28;19909;-86
2022/12/14 00:28:45;;;;;;;;;;;14.60;46.40;;;;;;5039141;28;19909;-85
2022/12/14 00:31:11;;;;;;;;;;;14.60;46.40;;;;;;5056925;28;19920;-86
2022/12/14 00:33:37;;;;;;;;;;;14.60;46.40;;;;;;5057200;28;19917;-86
2022/12/14 00:36:03;;;;;;;;;;;14.60;46.40;;;;;;5056742;28;20157;-86
2022/12/14 00:38:29;;;;;;;;;;;14.60;46.40;;;;;;5039328;28;19912;-86
2022/12/14 00:40:55;;;;;;;;;;;14.60;46.40;;;;;;5055808;28;20325;-86
2022/12/14 00:43:21;;;;;;;;;;;14.60;46.50;;;;;;5039162;28;19909;-86
2022/12/14 00:45:47;;;;;;;;;;;14.50;46.40;;;;;;5038683;28;19913;-86
2022/12/14 00:48:13;;;;;;;;;;;14.60;46.50;;;;;;5039835;28;19908;-86
2022/12/14 00:50:38;;;;;;;;;;;14.50;46.40;;;;;;5040748;28;20001;-86
2022/12/14 00:53:04;;;;;;;;;;;14.50;46.50;;;;;;5056330;28;20301;-86
2022/12/14 00:55:30;;;;;;;;;;;14.50;46.50;;;;;;5039288;28;20025;-86
2022/12/14 00:57:56;;;;;;;;;;;14.50;46.50;;;;;;5039445;28;19986;-86
2022/12/14 01:00:21;;;;;;;;;;;14.40;46.50;;;;;;5038852;28;19975;-86
2022/12/14 01:02:47;;;;;;;;;;;14.40;46.50;;;;;;5038835;28;19963;-86
2022/12/14 01:05:13;;;;;;;;;;;14.40;46.50;;;;;;5038704;28;19978;-86
2022/12/14 01:07:38;;;;;;;;;;;14.30;46.50;;;;;;5053500;28;20308;-86
2022/12/14 01:10:04;;;;;;;;;;;14.30;46.50;;;;;;5053668;28;19916;-86
2022/12/14 01:12:30;;;;;;;;;;;14.30;46.60;;;;;;5052434;28;19912;-86
2022/12/14 01:14:55;;;;;;;;;;;14.30;46.60;;;;;;5053536;28;19915;-86
2022/12/14 01:17:21;;;;;;;;;;;14.20;46.60;;;;;;5037052;28;19913;-86
2022/12/14 01:19:46;;;;;;;;;;;14.20;46.60;;;;;;5053644;28;19920;-86
2022/12/14 01:22:12;;;;;;;;;;;14.20;46.70;;;;;;5038536;28;19935;-86
2022/12/14 01:24:38;;;;;;;;;;;14.20;46.70;;;;;;5056120;28;20183;-86
2022/12/14 01:32:06;;;;;;;;;;;14.10;46.80;;;;;;5050980;28;19998;-7
2022/12/14 01:34:32;;;;;;;;;;;14.00;46.80;;;;;;5051417;28;19932;-7
2022/12/14 01:36:57;;;;;;;;;;;14.00;46.80;;;;;;5050110;28;19912;-7
2022/12/14 01:39:23;;;;;;;;;;;14.00;46.90;;;;;;5053020;28;20201;-7
2022/12/14 01:41:51;;;;;;;;;;;13.90;46.80;;;;;;5053920;28;20212;-7
2022/12/14 01:44:17;;;;;;;;;;;13.90;46.90;;;;;;5037728;28;19908;-8
2022/12/14 01:46:42;;;;;;;;;;;13.90;46.90;;;;;;5036134;28;19919;-8
2022/12/14 01:49:13;;;;;;;;;;;13.80;46.90;;;;;;5035870;28;19908;-8
2022/12/14 01:51:41;;;;;;;;;;;13.80;46.90;;;;;;5052925;28;20177;-8
2022/12/14 01:54:08;;;;;;;;;;;13.80;47.00;;;;;;5053700;28;19909;-8
2022/12/14 01:56:35;;;;;;;;;;;13.70;46.90;;;;;;5036818;28;20386;-8
2022/12/14 01:59:04;;;;;;;;;;;13.70;46.90;;;;;;5052852;28;19962;-8
2022/12/14 02:01:30;;;;;;;;;;;13.70;46.80;;;;;;5053752;28;20278;-8
2022/12/14 02:03:55;;;;;;;;;;;13.70;46.80;;;;;;5053689;28;19916;-8
2022/12/14 02:06:29;;;;;;;;;;;13.60;46.90;;;;;;5037482;28;19912;-8
2022/12/14 02:08:56;;;;;;;;;;;13.50;46.90;;;;;;5053551;28;19908;-8
2022/12/14 02:11:34;;;;;;;;;;;13.50;46.90;;;;;;5055408;28;20257;-8
2022/12/14 02:14:00;;;;;;;;;;;13.50;47.00;;;;;;5049422;28;19909;-8
2022/12/14 02:16:26;;;;;;;;;;;13.40;47.00;;;;;;5051127;28;19920;-8
2022/12/14 02:18:52;;;;;;;;;;;13.40;47.00;;;;;;5053416;28;20546;-8
2022/12/14 02:21:35;;;;;;;;;;;13.30;47.00;;;;;;5054126;28;20019;-8
2022/12/14 02:24:22;;;;;;;;;;;13.30;47.10;;;;;;5037486;28;19909;-8
2022/12/14 02:26:47;;;;;;;;;;;13.30;47.10;;;;;;5054109;28;20003;-8
2022/12/14 02:29:28;;;;;;;;;;;13.30;47.10;;;;;;5038289;28;20008;-8
2022/12/14 02:32:08;;;;;;;;;;;13.20;47.10;;;;;;5053772;28;20293;-8
2022/12/14 02:37:56;;;;;;;;;;;13.10;47.20;;;;;;5054706;28;19923;-8
2022/12/14 02:40:24;;;;;;;;;;;13.20;47.30;;;;;;5036375;28;20237;-8
2022/12/14 02:42:56;;;;;;;;;;;13.10;47.30;;;;;;5053225;28;20016;-8
2022/12/14 02:45:22;;;;;;;;;;;13.00;47.30;;;;;;5054238;28;19916;-8
2022/12/14 02:47:47;;;;;;;;;;;13.00;47.30;;;;;;5055128;28;19975;-8
2022/12/14 02:50:19;;;;;;;;;;;13.00;47.40;;;;;;5055262;28;20265;-8
2022/12/14 02:53:00;;;;;;;;;;;13.00;47.40;;;;;;5055390;28;19920;-8
2022/12/14 02:55:44;;;;;;;;;;;13.00;47.40;;;;;;5054861;28;19909;-8
2022/12/14 02:58:13;;;;;;;;;;;13.10;47.30;;;;;;5038073;28;19921;-8
2022/12/14 03:00:39;;;;;;;;;;;13.10;47.10;;;;;;5056744;28;20262;-8
2022/12/14 03:03:05;;;;;;;;;;;13.20;47.10;;;;;;5055494;28;20000;-8
2022/12/14 03:05:31;;;;;;;;;;;13.20;47.00;;;;;;5058864;28;19909;-8
2022/12/14 03:07:58;;;;;;;;;;;13.20;46.90;;;;;;5074517;28;20248;-8
2022/12/14 03:10:42;;;;;;;;;;;13.30;46.90;;;;;;5040664;28;19909;-8
2022/12/14 03:13:16;;;;;;;;;;;13.20;46.90;;;;;;5041183;28;20012;-8
2022/12/14 03:15:44;;;;;;;;;;;13.20;46.90;;;;;;5041371;28;19909;-8
2022/12/14 03:18:11;;;;;;;;;;;13.20;46.90;;;;;;5040971;28;19920;-8
2022/12/14 03:20:37;;;;;;;;;;;13.20;46.90;;;;;;5058809;28;19917;-8
2022/12/14 03:23:06;;;;;;;;;;;13.20;46.80;;;;;;5042762;28;19917;-8
2022/12/14 03:25:43;;;;;;;;;;;13.20;46.80;;;;;;5041905;28;20209;-8
2022/12/14 03:28:35;;;;;;;;;;;13.20;46.90;;;;;;5041716;28;19916;-8
2022/12/14 03:31:05;;;;;;;;;;;13.10;46.80;;;;;;5037026;28;20161;-8
2022/12/14 03:33:32;;;;;;;;;;;13.10;46.90;;;;;;5058149;28;19920;-8
2022/12/14 03:36:01;;;;;;;;;;;13.10;46.90;;;;;;5056972;28;19909;-8
2022/12/14 03:38:36;;;;;;;;;;;13.00;46.90;;;;;;5057486;28;20027;-8
2022/12/14 03:41:14;;;;;;;;;;;13.00;46.90;;;;;;5058095;28;20273;-8
2022/12/14 03:43:42;;;;;;;;;;;12.90;46.90;;;;;;5056717;28;19917;-8
2022/12/14 03:46:31;;;;;;;;;;;12.90;47.00;;;;;;5056888;28;20253;-8
2022/12/14 03:49:26;;;;;;;;;;;12.90;47.00;;;;;;5027872;28;20016;-8
2022/12/14 03:51:52;;;;;;;;;;;12.80;47.10;;;;;;4966954;28;19910;-8
2022/12/14 03:54:29;;;;;;;;;;;12.80;47.10;;;;;;5056193;28;20193;-8
2022/12/14 03:57:04;;;;;;;;;;;12.70;47.10;;;;;;5055512;28;19920;-8
2022/12/14 03:59:39;;;;;;;;;;;12.60;47.20;;;;;;5052741;28;19913;-8
2022/12/14 04:02:05;;;;;;;;;;;12.60;47.30;;;;;;5040645;28;19908;-8
2022/12/14 04:04:40;;;;;;;;;;;12.60;47.30;;;;;;5041225;28;20011;-8
2022/12/14 04:07:19;;;;;;;;;;;12.50;47.30;;;;;;5056209;28;19968;-8
2022/12/14 04:09:53;;;;;;;;;;;12.50;47.40;;;;;;5056430;28;19974;-7
2022/12/14 04:20:49;;;;;;;;;;;14.30;45.50;;;;;;5055792;28;20206;-7
2022/12/14 04:26:03;;;;;;;;;;;14.70;45.00;;;;;;5037702;28;20031;-7
2022/12/14 04:26:08;;;;;;;;;;;14.90;44.70;;;;;;5054481;28;19909;-7
2022/12/14 04:31:42;;;;;;;;;;;15.40;44.10;;;;;;5055271;28;19924;-7
2022/12/14 04:34:38;;;;;;;;;;;15.70;43.70;;;;;;5037692;28;19935;-7
2022/12/14 04:37:07;;;;;;;;;;;16.00;43.40;;;;;;5055695;28;19913;-7
2022/12/14 04:39:46;;;;;;;;;;;16.40;43.10;;;;;;5037948;28;20157;-7
2022/12/14 04:42:13;;;;;;;;;;;16.60;42.80;;;;;;5056660;28;19912;-7
2022/12/14 04:44:41;;;;;;;;;;;16.70;42.70;;;;;;5056698;28;19944;-7
2022/12/14 04:47:08;;;;;;;;;;;16.90;42.50;;;;;;5057083;28;19909;-7
2022/12/14 04:49:34;;;;;;;;;;;17.00;42.30;;;;;;5071977;28;19948;-7
2022/12/14 04:52:03;;;;;;;;;;;17.20;42.20;;;;;;5038601;28;19959;-7
2022/12/14 04:54:28;;;;;;;;;;;17.40;42.10;;;;;;5054504;28;19940;-7
2022/12/14 04:57:06;;;;;;;;;;;17.40;42.00;;;;;;5037898;28;19947;-7
2022/12/14 04:59:31;;;;;;;;;;;17.50;41.90;;;;;;5055164;28;19920;-7
2022/12/14 05:02:05;;;;;;;;;;;17.70;41.80;;;;;;5053942;28;19908;-16
2022/12/14 05:04:30;;;;;;;;;;;17.90;41.60;;;;;;5037110;28;19917;-7
2022/12/14 05:07:01;;;;;;;;;;;18.00;41.50;;;;;;5055309;28;19924;-7
2022/12/14 05:09:29;;;;;;;;;;;18.00;41.50;;;;;;5036853;28;19959;-7
2022/12/14 05:11:59;;;;;;;;;;;18.00;41.50;;;;;;5038235;28;20011;-7
2022/12/14 05:14:38;;;;;;;;;;;18.00;41.50;;;;;;5054817;28;19912;-7
2022/12/14 05:17:05;;;;;;;;;;;17.90;41.50;;;;;;5036677;28;20233;-7
2022/12/14 05:19:31;;;;;;;;;;;17.90;41.50;;;;;;5053624;28;20189;-7
2022/12/14 05:21:58;;;;;;;;;;;17.80;41.60;;;;;;5053888;28;20269;-7
2022/12/14 05:24:24;;;;;;;;;;;17.80;41.60;;;;;;5054306;28;20031;-7
2022/12/14 05:26:50;;;;;;;;;;;17.70;41.70;;;;;;5053027;28;20003;-7
2022/12/14 05:29:16;;;;;;;;;;;17.60;41.70;;;;;;5049347;28;19909;-7
2022/12/14 05:31:42;;;;;;;;;;;17.50;41.80;;;;;;5049773;28;19978;-7
2022/12/14 05:34:07;;;;;;;;;;;17.40;41.90;;;;;;5050678;28;19916;-7
2022/12/14 05:36:33;;;;;;;;;;;17.30;42.00;;;;;;5052233;28;19975;-7
2022/12/14 05:38:59;;;;;;;;;;;17.20;42.10;;;;;;5051179;28;20189;-7
2022/12/14 05:41:25;;;;;;;;;;;17.10;42.30;;;;;;5051461;28;20200;-7
2022/12/14 05:43:51;;;;;;;;;;;16.90;42.40;;;;;;5051529;28;20355;-7
2022/12/14 05:46:17;;;;;;;;;;;16.70;42.60;;;;;;5050801;28;19978;-7
2022/12/14 05:48:42;;;;;;;;;;;16.60;42.80;;;;;;5051091;28;20173;-7
2022/12/14 05:51:10;;;;;;;;;;;16.40;42.90;;;;;;5051176;28;20270;-7
2022/12/14 05:53:36;;;;;;;;;;;16.30;43.00;;;;;;5051909;28;20043;-7
2022/12/14 05:56:02;;;;;;;;;;;16.20;43.20;;;;;;5050212;28;19920;-7
2022/12/14 05:58:27;;;;;;;;;;;16.20;43.30;;;;;;5050583;28;20141;-7
2022/12/14 06:00:56;;;;;;;;;;;16.10;43.30;;;;;;5066704;22;19921;-7
2022/12/14 06:03:24;;;;;;;;;;;16.20;43.30;;;;;;5026782;28;19921;-7
2022/12/14 06:05:50;;;;;;;;;;;16.40;43.00;;;;;;5027646;28;20402;-7
2022/12/14 06:08:15;;;;;;;;;;;16.80;42.50;;;;;;5029559;28;20372;-7
2022/12/14 06:10:44;;;;;;;;;;;17.10;42.20;;;;;;5027989;28;19909;-7
2022/12/14 06:13:10;;;;;;;;;;;17.30;42.10;;;;;;5012338;28;20070;-7
2022/12/14 06:15:35;;;;;;;;;;;17.40;42.10;;;;;;5030710;28;20304;-7
2022/12/14 06:18:02;;;;;;;;;;;17.40;42.00;;;;;;5030583;28;20283;-7
2022/12/14 06:20:30;;;;;;;;;;;17.50;41.90;;;;;;5031090;28;20301;-8
2022/12/14 06:22:56;;;;;;;;;;;17.60;41.80;;;;;;5031412;28;20240;-7
2022/12/14 06:25:21;;;;;;;;;;;17.70;41.70;;;;;;5030315;28;20286;-7
2022/12/14 06:27:51;;;;;;;;;;;17.70;41.60;;;;;;5029416;28;19909;-7
2022/12/14 06:30:17;;;;;;;;;;;17.80;41.60;;;;;;5027540;28;19916;-7
2022/12/14 06:32:45;;;;;;;;;;;17.90;41.60;;;;;;5028618;28;19909;-7
2022/12/14 06:35:11;;;;;;;;;;;18.00;41.70;;;;;;5028820;28;20361;-7
2022/12/14 06:37:43;;;;;;;;;;;17.90;41.80;;;;;;5045479;28;20335;-7
2022/12/14 06:40:09;;;;;;;;;;;17.90;41.90;;;;;;5019715;28;19909;-7
2022/12/14 06:42:34;;;;;;;;;;;17.80;42.10;;;;;;5019626;28;19920;-7
2022/12/14 06:45:00;;;;;;;;;;;17.80;42.20;;;;;;5036064;28;20000;-7
2022/12/14 06:47:33;;;;;;;;;;;17.70;42.20;;;;;;5019443;28;19914;-7
2022/12/14 06:49:58;;;;;;;;;;;17.60;42.40;;;;;;5029588;28;19958;-7
2022/12/14 06:52:27;;;;;;;;;;;17.50;42.80;;;;;;5028686;28;19909;-7
2022/12/14 06:54:55;;;;;;;;;;;17.50;42.50;;;;;;5037635;28;19918;-7
2022/12/14 06:57:21;;;;;;;;;;;17.40;42.50;;;;;;5016763;28;19968;-7
2022/12/14 06:59:46;;;;;;;;;;;17.30;42.60;;;;;;5031860;28;20192;-7
2022/12/14 07:02:15;;;;;;;;;;;17.20;42.60;;;;;;5030063;28;20063;-7
2022/12/14 07:04:40;;;;;;;;;;;17.10;42.60;;;;;;5013895;28;20396;-7
2022/12/14 07:07:06;;;;;;;;;;;17.10;42.70;;;;;;5031060;28;19959;-7
2022/12/14 07:09:32;;;;;;;;;;;16.90;42.80;;;;;;5013372;28;19941;-7
2022/12/14 07:11:57;;;;;;;;;;;16.90;42.90;;;;;;5032668;28;20020;-7
2022/12/14 07:14:26;;;;;;;;;;;16.80;42.90;;;;;;5015169;28;19910;-7
2022/12/14 07:16:52;;;;;;;;;;;16.70;43.00;;;;;;5031675;28;19920;-7
2022/12/14 07:19:17;;;;;;;;;;;16.70;43.00;;;;;;5011942;28;19909;-7
2022/12/14 07:21:43;;;;;;;;;;;16.80;42.90;;;;;;5029177;28;19913;-7
2022/12/14 07:24:08;;;;;;;;;;;16.80;42.80;;;;;;5030984;28;19975;-7
2022/12/14 07:26:35;;;;;;;;;;;17.00;42.70;;;;;;5031205;28;19910;-7
2022/12/14 07:29:00;;;;;;;;;;;17.30;42.40;;;;;;5029834;28;20301;-7
2022/12/14 07:31:27;;;;;;;;;;;17.50;42.10;;;;;;5010815;28;19942;-7
2022/12/14 07:33:57;;;;;;;;;;;17.60;42.00;;;;;;5015035;28;20312;-7
2022/12/14 07:36:23;;;;;;;;;;;17.60;42.00;;;;;;5014330;28;19909;-7
2022/12/14 07:38:50;;;;;;;;;;;17.70;42.10;;;;;;5031415;28;20176;-7
2022/12/14 07:41:17;;;;;;;;;;;17.80;42.10;;;;;;5013133;28;19909;-7
2022/12/14 07:43:43;;;;;;;;;;;17.80;41.90;;;;;;5028470;28;19909;-7
2022/12/14 07:46:13;;;;;;;;;;;17.80;42.00;;;;;;5011651;28;20088;-7
2022/12/14 07:48:38;;;;;;;;;;;17.80;41.90;;;;;;5028852;28;20293;-7
2022/12/14 07:51:05;;;;;;;;;;;17.90;41.80;;;;;;5029200;28;19913;-7
2022/12/14 07:53:31;;;;;;;;;;;17.90;41.80;;;;;;5013202;28;19957;-7
2022/12/14 07:56:17;;;;;;;;;;;18.00;41.70;;;;;;5028481;28;19936;-7
2022/12/14 07:58:43;;;;;;;;;;;17.90;41.70;;;;;;5029225;28;19913;-7
2022/12/14 08:01:16;;;;;;;;;;;17.80;41.90;;;;;;5027960;28;19921;-7
2022/12/14 08:03:44;;;;;;;;;;;17.60;42.00;;;;;;5031087;28;19913;-16
2022/12/14 08:06:12;;;;;;;;;;;17.40;42.20;;;;;;5032306;28;20093;-7
2022/12/14 08:08:38;;;;;;;;;;;17.20;42.30;;;;;;5013009;28;20294;-7
2022/12/14 08:11:04;;;;;;;;;;;17.00;42.50;;;;;;5031381;28;20141;-7
2022/12/14 08:13:33;;;;;;;;;;;16.80;43.20;;;;;;5014278;28;19979;-7
2022/12/14 08:16:26;;;;;;;;;;;16.70;42.90;;;;;;5012911;28;19971;-7
2022/12/14 08:18:53;;;;;;;;;;;16.60;43.10;;;;;;5030861;28;20050;-7
2022/12/14 08:21:25;;;;;;;;;;;16.50;43.20;;;;;;5015216;28;19909;-7
2022/12/14 08:23:52;;;;;;;;;;;16.50;43.10;;;;;;5031371;28;20309;-7
2022/12/14 08:26:20;;;;;;;;;;;16.70;43.00;;;;;;5030607;28;19909;-7
2022/12/14 08:28:47;;;;;;;;;;;16.90;42.70;;;;;;5030648;28;19915;-7
2022/12/14 08:31:17;;;;;;;;;;;17.20;42.30;;;;;;5031654;28;19910;-7
2022/12/14 08:33:46;;;;;;;;;;;17.60;42.00;;;;;;5028272;28;19922;-7
2022/12/14 08:36:15;;;;;;;;;;;17.90;41.60;;;;;;5026520;28;19920;-7
2022/12/14 08:38:41;;;;;;;;;;;18.00;41.40;;;;;;5011223;28;20334;-7
2022/12/14 08:41:10;;;;;;;;;;;18.10;41.80;;;;;;5028717;28;20338;-7
2022/12/14 08:43:36;;;;;;;;;;;18.10;41.30;;;;;;5029439;28;19909;-7
2022/12/14 08:46:02;;;;;;;;;;;18.20;41.30;;;;;;5008974;28;19909;-7
2022/12/14 08:48:28;;;;;;;;;;;18.30;41.30;;;;;;5029104;28;20067;-7
2022/12/14 08:51:04;;;;;;;;;;;18.30;41.30;;;;;;5031340;28;19939;-7
2022/12/14 08:53:30;;;;;;;;;;;18.20;41.30;;;;;;5014385;28;20237;-7
2022/12/14 08:55:55;;;;;;;;;;;18.20;41.30;;;;;;5031049;28;20291;-7
2022/12/14 08:58:25;;;;;;;;;;;18.20;41.30;;;;;;5032375;28;20022;-7
2022/12/14 09:00:58;;;;;;;;;;;18.20;41.30;;;;;;5014583;28;19913;-7
2022/12/14 09:03:24;;;;;;;;;;;18.10;41.40;;;;;;5031493;28;19921;-7
2022/12/14 09:05:49;;;;;;;;;;;18.00;41.40;;;;;;5033152;28;20295;-7
2022/12/14 09:08:18;;;;;;;;;;;17.90;41.40;;;;;;5031765;28;20169;-7
2022/12/14 09:10:50;;;;;;;;;;;17.80;41.50;;;;;;5031884;28;19909;-7
2022/12/14 09:13:19;;;;;;;;;;;17.70;41.60;;;;;;5030364;28;19909;-7
2022/12/14 09:16:03;;;;;;;;;;;17.60;41.80;;;;;;5030290;28;19932;-7
2022/12/14 09:18:33;;;;;;;;;;;17.50;41.90;;;;;;5013796;28;19975;-7
2022/12/14 09:20:59;;;;;;;;;;;17.40;42.10;;;;;;5010596;28;19963;-7
2022/12/14 09:23:28;;;;;;;;;;;17.30;42.20;;;;;;5011829;28;20181;-7
2022/12/14 09:25:58;;;;;;;;;;;17.20;42.30;;;;;;5012951;28;19936;-7
2022/12/14 09:28:24;;;;;;;;;;;17.10;42.40;;;;;;5010996;28;20161;-7
2022/12/14 09:30:54;;;;;;;;;;;16.90;42.50;;;;;;5010115;28;19909;-7
2022/12/14 09:33:20;;;;;;;;;;;16.80;42.60;;;;;;5028328;28;19909;-7
2022/12/14 09:36:16;;;;;;;;;;;16.80;42.70;;;;;;5031354;28;19917;-7
2022/12/14 09:38:42;;;;;;;;;;;16.80;42.70;;;;;;5028224;28;20114;-7
2022/12/14 09:41:20;;;;;;;;;;;16.90;42.60;;;;;;5010504;28;20168;-7
2022/12/14 09:43:52;;;;;;;;;;;17.00;42.50;;;;;;5008315;28;19917;-7
2022/12/14 09:46:26;;;;;;;;;;;17.20;42.20;;;;;;5024817;28;20061;-7
2022/12/14 09:48:53;;;;;;;;;;;17.40;42.00;;;;;;5025309;28;19917;-7
2022/12/14 09:51:23;;;;;;;;;;;17.60;41.70;;;;;;5005565;28;20263;-7
2022/12/14 09:53:57;;;;;;;;;;;17.90;41.50;;;;;;5008045;28;20062;-7
2022/12/14 09:56:25;;;;;;;;;;;18.10;41.30;;;;;;5029391;28;20282;-7
2022/12/14 09:58:58;;;;;;;;;;;18.20;41.00;;;;;;5011693;28;19913;-7
2022/12/14 10:01:50;;;;;;;;;;;18.40;41.00;;;;;;5030094;28;19917;-7
2022/12/14 10:04:27;;;;;;;;;;;18.50;40.90;;;;;;5011786;28;20128;-7
2022/12/14 10:06:59;;;;;;;;;;;18.50;40.80;;;;;;5028973;28;20107;-7
2022/12/14 10:09:28;;;;;;;;;;;18.40;40.90;;;;;;5030161;28;20271;-7
2022/12/14 10:12:12;;;;;;;;;;;18.40;40.90;;;;;;5029210;28;19920;-7
2022/12/14 10:14:37;;;;;;;;;;;18.40;41.00;;;;;;5028676;28;19909;-7
2022/12/14 10:17:09;;;;;;;;;;;18.30;41.00;;;;;;5028003;28;20169;-7
2022/12/14 10:19:50;;;;;;;;;;;18.20;41.10;;;;;;5029919;28;20125;-7
2022/12/14 10:22:21;;;;;;;;;;;18.20;41.10;;;;;;5010931;28;20059;-7
2022/12/14 10:24:53;;;;;;;;;;;18.10;41.10;;;;;;5029322;28;19920;-7
2022/12/14 10:27:23;;;;;;;;;;;18.00;41.20;;;;;;5010096;28;20305;-7
2022/12/14 10:30:03;;;;;;;;;;;17.90;41.30;;;;;;5009889;28;20168;-7
2022/12/14 10:32:56;;;;;;;;;;;17.80;41.40;;;;;;5027970;28;19909;-7
2022/12/14 10:35:26;;;;;;;;;;;17.70;41.60;;;;;;4990617;28;20075;-7
2022/12/14 10:37:57;;;;;;;;;;;17.50;41.70;;;;;;5027890;28;20272;-7
2022/12/14 10:40:29;;;;;;;;;;;17.50;41.80;;;;;;5010151;28;19908;-7
2022/12/14 10:42:54;;;;;;;;;;;17.40;41.90;;;;;;5029489;28;19916;-7
2022/12/14 10:45:33;;;;;;;;;;;17.30;42.00;;;;;;5010596;28;20137;-7
2022/12/14 10:48:05;;;;;;;;;;;17.20;42.10;;;;;;5028373;28;20194;-7
2022/12/14 10:50:48;;;;;;;;;;;17.10;42.20;;;;;;5028155;28;19916;-7
2022/12/14 10:53:21;;;;;;;;;;;17.10;42.20;;;;;;5029046;28;20270;-7
2022/12/14 10:55:47;;;;;;;;;;;17.10;42.70;;;;;;5010674;28;19909;-7
2022/12/14 10:58:15;;;;;;;;;;;17.20;42.20;;;;;;5010422;28;20284;-7
2022/12/14 11:00:44;;;;;;;;;;;17.30;42.10;;;;;;5029330;28;20007;-7
2022/12/14 11:03:13;;;;;;;;;;;17.40;41.90;;;;;;5027450;28;20016;-7
2022/12/14 11:05:41;;;;;;;;;;;17.60;41.70;;;;;;5028707;28;19909;-7
2022/12/14 11:08:07;;;;;;;;;;;17.70;41.70;;;;;;5028405;28;20089;-7
2022/12/14 11:10:39;;;;;;;;;;;17.80;41.60;;;;;;5010240;28;19908;-7
2022/12/14 11:13:13;;;;;;;;;;;17.90;41.50;;;;;;5011004;28;20207;-7
2022/12/14 11:15:40;;;;;;;;;;;18.10;41.30;;;;;;5029647;28;20026;-7
2022/12/14 11:18:05;;;;;;;;;;;18.30;41.20;;;;;;5026853;28;20016;-7
2022/12/14 11:20:32;;;;;;;;;;;18.30;41.10;;;;;;5028026;28;20012;-7
2022/12/14 11:23:05;;;;;;;;;;;18.30;41.10;;;;;;5010857;28;19971;-7
2022/12/14 11:25:41;;;;;;;;;;;18.40;41.10;;;;;;5028643;28;19920;-7
2022/12/14 11:28:33;;;;;;;;;;;18.40;41.00;;;;;;5014311;28;19909;-7
2022/12/14 11:31:12;;;;;;;;;;;18.40;41.00;;;;;;5026375;28;19963;-7
2022/12/14 11:33:46;;;;;;;;;;;18.30;41.10;;;;;;5010923;28;20050;-7
2022/12/14 11:36:27;;;;;;;;;;;18.20;41.20;;;;;;5010931;28;19920;-7
2022/12/14 11:38:53;;;;;;;;;;;18.20;41.30;;;;;;5029460;28;20228;-7
2022/12/14 11:41:19;;;;;;;;;;;18.10;41.40;;;;;;5030693;28;20020;-7
2022/12/14 11:43:45;;;;;;;;;;;18.00;41.40;;;;;;5012090;28;20003;-7
2022/12/14 11:46:14;;;;;;;;;;;17.90;41.40;;;;;;5031732;28;19952;-7
2022/12/14 11:48:46;;;;;;;;;;;17.80;41.50;;;;;;5030989;28;19909;-7
2022/12/14 11:51:12;;;;;;;;;;;17.80;41.60;;;;;;5010662;28;19983;-7
2022/12/14 11:53:38;;;;;;;;;;;17.70;41.70;;;;;;5010568;28;19909;-7
2022/12/14 11:56:09;;;;;;;;;;;17.60;41.80;;;;;;5010534;28;19936;-7
2022/12/14 11:58:45;;;;;;;;;;;17.50;41.90;;;;;;5027374;28;19986;-7
2022/12/14 12:01:12;;;;;;;;;;;17.50;42.00;;;;;;5026202;28;20011;-7
2022/12/14 12:03:46;;;;;;;;;;;17.50;42.00;;;;;;5011681;28;20125;-7
2022/12/14 12:06:17;;;;;;;;;;;17.40;42.10;;;;;;5027958;28;19909;-7
2022/12/14 12:08:46;;;;;;;;;;;17.40;42.10;;;;;;5026422;28;20362;-7
2022/12/14 12:11:16;;;;;;;;;;;17.30;42.10;;;;;;5027889;28;19909;-7
2022/12/14 12:13:44;;;;;;;;;;;17.30;42.20;;;;;;5009755;28;19909;-7
2022/12/14 12:16:10;;;;;;;;;;;17.30;42.10;;;;;;5025470;28;19917;-7
2022/12/14 12:18:36;;;;;;;;;;;17.30;42.20;;;;;;5019901;28;19944;-7
2022/12/14 12:21:07;;;;;;;;;;;17.20;42.30;;;;;;5009314;28;19910;-7
2022/12/14 12:23:33;;;;;;;;;;;17.10;42.40;;;;;;5024102;28;20074;-7
2022/12/14 12:26:20;;;;;;;;;;;17.00;42.60;;;;;;5011176;28;19959;-7
2022/12/14 12:28:52;;;;;;;;;;;16.80;42.80;;;;;;5010613;28;20081;-7
2022/12/14 12:31:21;;;;;;;;;;;16.60;43.00;;;;;;5008355;28;20427;-7
2022/12/14 12:34:16;;;;;;;;;;;16.50;43.30;;;;;;4991787;28;19996;-7
2022/12/14 12:36:42;;;;;;;;;;;16.40;43.40;;;;;;4993667;28;20005;-7
2022/12/14 12:39:14;;;;;;;;;;;16.50;43.50;;;;;;5022735;28;19964;-7
2022/12/14 12:41:52;;;;;;;;;;;16.70;43.30;;;;;;5006213;28;20000;-7
2022/12/14 12:44:20;;;;;;;;;;;17.10;43.10;;;;;;5020154;28;20012;-7
2022/12/14 12:46:51;;;;;;;;;;;17.50;42.60;;;;;;5021006;28;19909;-7
2022/12/14 12:49:17;;;;;;;;;;;18.00;42.10;;;;;;5021818;28;20070;-7
2022/12/14 12:51:57;;;;;;;;;;;18.30;41.80;;;;;;5005423;28;20477;-7
2022/12/14 12:54:30;;;;;;;;;;;18.50;41.70;;;;;;5006514;28;19957;-7
2022/12/14 12:56:56;;;;;;;;;;;18.60;41.60;;;;;;5006920;28;19910;-7
2022/12/14 12:59:32;;;;;;;;;;;18.60;41.60;;;;;;5007786;28;19924;-7
2022/12/14 13:02:17;;;;;;;;;;;18.70;41.50;;;;;;4988045;28;19921;-7
2022/12/14 13:04:43;;;;;;;;;;;18.70;41.50;;;;;;5005306;28;19959;-23
2022/12/14 13:07:15;;;;;;;;;;;18.80;41.50;;;;;;4989114;28;20280;-7
2022/12/14 13:09:43;;;;;;;;;;;18.80;41.40;;;;;;5020800;28;19953;-7
2022/12/14 13:12:31;;;;;;;;;;;18.80;41.50;;;;;;4990408;28;20019;-7
2022/12/14 13:15:00;;;;;;;;;;;18.70;41.60;;;;;;4985112;28;20234;-7
2022/12/14 13:17:38;;;;;;;;;;;18.60;41.70;;;;;;4988199;28;20172;-7
2022/12/14 13:20:19;;;;;;;;;;;18.40;41.90;;;;;;5008702;28;20012;-7
2022/12/14 13:22:48;;;;;;;;;;;18.20;42.10;;;;;;4988122;28;20219;-7
2022/12/14 13:25:19;;;;;;;;;;;18.00;42.20;;;;;;4988326;28;19940;-7
2022/12/14 13:27:47;;;;;;;;;;;17.80;42.40;;;;;;5004294;28;20313;-7
2022/12/14 13:30:19;;;;;;;;;;;17.70;42.60;;;;;;5007093;28;20309;-7
2022/12/14 13:32:45;;;;;;;;;;;17.50;42.80;;;;;;5007127;28;20206;-7
2022/12/14 13:35:13;;;;;;;;;;;17.30;42.90;;;;;;5007842;28;20011;-7
2022/12/14 13:37:59;;;;;;;;;;;17.20;43.10;;;;;;5010119;28;19922;-7
2022/12/14 13:40:31;;;;;;;;;;;17.00;43.20;;;;;;5008920;28;19918;-7
2022/12/14 13:42:59;;;;;;;;;;;16.90;43.40;;;;;;5008419;28;20226;-7
2022/12/14 13:45:30;;;;;;;;;;;16.80;43.50;;;;;;5008164;28;19927;-7
2022/12/14 13:47:56;;;;;;;;;;;16.70;43.60;;;;;;5024565;28;20016;-7
2022/12/14 13:50:25;;;;;;;;;;;16.60;43.70;;;;;;5010280;28;20256;-7
2022/12/14 13:52:54;;;;;;;;;;;16.50;43.80;;;;;;5026239;28;19909;-7
2022/12/14 13:55:29;;;;;;;;;;;16.50;43.90;;;;;;4990284;28;20356;-7
2022/12/14 13:58:14;;;;;;;;;;;16.50;43.90;;;;;;5008957;28;20231;-8
2022/12/14 14:00:46;;;;;;;;;;;16.60;43.80;;;;;;4994060;28;19996;-8
2022/12/14 14:03:30;;;;;;;;;;;16.70;43.70;;;;;;5024016;28;20484;-8
2022/12/14 14:06:02;;;;;;;;;;;16.80;43.60;;;;;;5008783;28;19975;-8
2022/12/14 14:08:32;;;;;;;;;;;17.00;43.40;;;;;;4991114;28;19909;-8
2022/12/14 14:11:20;;;;;;;;;;;17.10;43.30;;;;;;5005536;28;20182;-8
2022/12/14 14:13:45;;;;;;;;;;;17.20;43.20;;;;;;4990241;28;20037;-8
2022/12/14 14:16:14;;;;;;;;;;;17.30;43.20;;;;;;5007300;28;20417;-8
2022/12/14 14:18:51;;;;;;;;;;;17.40;43.10;;;;;;4991741;28;19913;-8
2022/12/14 14:21:20;;;;;;;;;;;17.50;43.00;;;;;;5025408;28;19909;-14
2022/12/14 14:23:56;;;;;;;;;;;17.60;42.90;;;;;;5009742;28;19920;-8
2022/12/14 14:26:26;;;;;;;;;;;17.60;43.40;;;;;;4990484;28;20172;-8
2022/12/14 14:29:12;;;;;;;;;;;17.60;42.90;;;;;;5007418;28;20233;-8
2022/12/14 14:31:47;;;;;;;;;;;17.60;43.00;;;;;;4981688;28;19920;-8
2022/12/14 14:34:18;;;;;;;;;;;17.60;43.10;;;;;;5023630;28;20011;-8
2022/12/14 14:36:44;;;;;;;;;;;17.50;43.10;;;;;;5008225;28;19909;-8
2022/12/14 14:39:30;;;;;;;;;;;17.50;43.20;;;;;;5008019;28;19924;-8
2022/12/14 14:41:59;;;;;;;;;;;17.50;43.30;;;;;;5007053;28;19979;-8
2022/12/14 14:44:34;;;;;;;;;;;17.40;43.30;;;;;;5007062;28;20111;-8
2022/12/14 14:47:11;;;;;;;;;;;17.40;43.40;;;;;;4987173;28;19917;-8
2022/12/14 14:49:38;;;;;;;;;;;17.30;43.40;;;;;;5006786;28;19910;-8
2022/12/14 14:52:26;;;;;;;;;;;17.30;43.50;;;;;;5020569;28;19910;-8
2022/12/14 14:54:55;;;;;;;;;;;17.20;43.60;;;;;;5003681;28;19980;-8
2022/12/14 14:57:39;;;;;;;;;;;17.10;43.70;;;;;;4987420;28;19975;-8
2022/12/14 15:00:05;;;;;;;;;;;17.00;43.80;;;;;;4989893;28;20498;-8
2022/12/14 15:02:41;;;;;;;;;;;16.90;43.90;;;;;;4994452;28;19928;-8
2022/12/14 15:05:14;;;;;;;;;;;16.80;44.00;;;;;;4992520;28;20360;-8
2022/12/14 15:07:43;;;;;;;;;;;16.70;44.10;;;;;;5009332;28;19909;-8